Daily Weather Observations for Burdell (Townsville)
For Friday 8th February 2019

This table is designed for ease of comparison to Bureau of Meteorology recorded weather data.

Station Details Name: BURDELL Lat: -19.24 Lon: 146.69 Height: 8.5 m
Date/Time
EST
Temp
°C
App
Temp
°C
Dew
Point
°C
Rel
Hum
%
Delta-T
°C
Wind Press
QNH
hPa
Press
MSL
hPa
Rain since
9am
mm
Dir  Spd
km/h
Gust
km/h
Spd
kts
Gust
kts
08/11:30pm 26.1 28.4 24.3 90 1.3 SSE 23 29 12 16 999.1 999.1 0.2
08/11:00pm 26.6 29.4 24.3 87 1.7 SSE 26 32 14 17 999.3 999.3 0.2
08/10:30pm 26.3 30.6 25.1 93 0.9 SSE 16 23 9 13 999.3 999.3 0.2
08/10:00pm 26.4 31.2 25.2 93 0.9 SSE 11 13 6 7 999.4 999.4 0.2
08/09:30pm 26.6 32.1 25.3 93 1.0 S 8 10 4 6 999.3 999.3 0.2
08/09:00pm 26.6 31.8 25.2 92 1.0 SSE 7 13 4 7 999.2 999.2 0.2
08/08:30pm 26.6 31.2 25.2 92 1.0 SSE 12 16 6 9 998.8 998.8 0.2
08/08:00pm 26.6 31.3 25.2 92 1.0 SSE 12 21 6 11 998.4 998.4 0.2
08/07:30pm 26.7 30.9 25.1 91 1.2 SSE 13 16 7 9 998.0 998.0 0.2
08/07:00pm 27.0 30.6 25.0 89 1.5 SSE 19 29 10 16 997.5 997.5 0.2
08/06:30pm 27.2 31.3 25.4 90 1.3 SSE 21 29 12 16 997.6 997.6 0.2
08/06:00pm 27.1 31.7 25.7 92 1.0 SSE 16 21 9 11 997.0 997.0 0.2
08/05:30pm 27.5 32.7 25.7 90 1.3 SSE 11 16 6 9 996.8 996.8 0.2
08/05:00pm 27.2 31.7 25.6 91 1.2 S 13 16 7 9 996.5 996.5 0.2
08/04:30pm 27.3 31.6 25.5 90 1.3 S 14 18 8 10 996.5 996.5 0.2
08/04:00pm 27.0 30.7 25.2 90 1.3 SSE 25 34 13 18 996.4 996.4 0.2
08/03:30pm 27.2 31.3 25.5 91 1.3 SSE 30 37 16 20 996.6 996.6 0.2
08/03:00pm 27.7 32.7 25.7 89 1.5 S 28 42 15 23 996.9 996.9 0.2
08/02:30pm 27.4 31.9 25.6 90 1.3 S 18 29 10 16 997.2 997.2 0.2
08/02:00pm 27.3 31.8 25.5 90 1.3 SSE 22 32 12 17 997.4 997.4 0.2
08/01:30pm 27.6 32.5 25.8 90 1.3 SSE 18 21 9 11 997.6 997.6 0.0
08/01:00pm 27.6 32.2 25.4 88 1.6 SSE 24 32 13 17 997.8 997.8 0.0
08/12:30pm 28.2 33.6 25.6 86 1.9 SSE 26 34 14 18 997.8 997.8 0.0
08/12:00pm 26.9 30.4 25.0 90 1.4 SSE 27 34 14 18 998.3 998.3 0.0
08/11:30am 26.2 28.6 24.7 92 1.1 S 23 34 12 18 998.7 998.7 0.0
08/11:00am 26.2 28.6 24.6 91 1.2 SSE 30 37 16 20 998.9 998.9 0.0
08/10:30am 26.3 28.9 25.0 93 1.0 SSE 27 37 14 20 998.8 998.8 0.0
08/10:00am 25.1 27.1 24.4 96 0.5 SSE 24 34 13 18 999.2 999.2 0.0
08/09:30am 24.7 26.4 24.2 97 0.4 SSE 28 37 15 20 999.1 999.1 0.0
08/09:00am 24.2 25.6 23.7 97 0.4 S 23 29 12 16 999.2 999.2 0.0
08/08:30am 23.9 25.1 23.4 98 0.4 SSE 26 37 14 20 999.0 999.0 130.3
08/08:00am 23.6 23.9 23.3 98 0.2 SSE 28 37 15 20 998.8 998.8 130.0
08/07:30am 23.6 24.0 23.3 98 0.2 SSE 27 32 15 17 998.3 998.3 130.0
08/07:00am 23.4 25.2 23.2 99 0.1 SSE 22 34 12 18 998.0 998.0 130.0
08/06:30am 23.1 23.7 23.1 100 0.0 SSE 26 32 14 17 997.6 997.6 129.8
08/06:00am 23.1 23.9 23.1 100 0.0 SSE 25 34 13 18 997.4 997.4 128.2
08/05:30am 23.2 24.1 23.0 99 0.1 SSE 25 34 13 18 997.1 997.1 128.0
08/05:00am 23.1 23.6 23.1 100 -0.0 S 26 34 14 18 996.8 996.8 128.0
08/04:30am 22.9 24.3 22.9 100 0.0 S 25 32 13 17 996.6 996.6 127.7
08/04:00am 22.9 24.8 22.9 100 0.0 S 19 26 10 14 996.6 996.6 127.2
08/03:30am 22.8 24.4 22.8 100 -0.0 S 20 29 11 16 996.9 996.9 126.5
08/03:00am 22.9 24.2 22.9 100 0.0 SSE 21 23 11 13 997.2 997.2 124.7
08/02:30am 23.1 24.2 23.1 100 0.0 SSE 22 29 12 16 997.4 997.4 121.4
08/02:00am 23.4 26.4 23.4 100 0.0 SE 16 34 9 18 997.5 997.5 118.8
08/01:30am 23.2 24.1 23.2 100 -0.0 SSE 28 39 15 21 997.3 997.3 114.8
08/01:00am 23.2 24.2 23.2 100 -0.0 SSE 25 32 14 17 997.6 997.6 113.5
08/12:30am 23.3 23.2 23.3 100 0.0 SSE 31 45 17 24 998.0 998.0 112.0
08/12:00am 23.6 25.2 23.6 100 0.0 S 22 29 12 16 998.1 998.1 110.5
 


NOTE: The apparent temperature specified in the table above is calculated using both the Heat Index and Steadman method. This differs to the Bureau of Meteorology's calculation which uses the Steadman method alone.